createdAt,value
2024-05-09T00:00:36.500Z,97819.75
2024-05-09T00:03:11.043Z,97816.97
2024-05-09T00:05:42.781Z,97818.44
2024-05-09T00:08:10.624Z,97815.53
2024-05-09T00:10:39.285Z,97815.19
2024-05-09T00:13:07.770Z,97817.13
2024-05-09T00:15:35.452Z,97815.91
2024-05-09T00:18:03.657Z,97815.69
2024-05-09T00:20:38.109Z,97816.88
2024-05-09T00:23:14.204Z,97817.78
2024-05-09T00:25:44.763Z,97814.75
2024-05-09T00:28:12.716Z,97811.28
2024-05-09T00:30:39.727Z,97810.13
2024-05-09T00:33:08.429Z,97808.56
2024-05-09T00:35:36.675Z,97812.22
2024-05-09T00:38:04.222Z,97809.41
2024-05-09T00:40:39.987Z,97808.06
2024-05-09T00:43:09.960Z,97806.88
2024-05-09T00:45:37.074Z,97812.00
2024-05-09T00:48:07.691Z,97804.72
2024-05-09T00:50:38.870Z,97802.69
2024-05-09T00:53:14.125Z,97794.56
2024-05-09T00:55:41.727Z,97799.22
2024-05-09T00:58:11.955Z,97801.09
2024-05-09T01:00:40.659Z,97799.94
2024-05-09T01:03:10.967Z,97799.13
2024-05-09T01:05:40.175Z,97796.47
2024-05-09T01:08:07.805Z,97793.44
2024-05-09T01:10:35.989Z,97793.03
2024-05-09T01:13:07.340Z,97788.22
2024-05-09T01:15:35.360Z,97797.13
2024-05-09T01:18:09.390Z,97789.06
2024-05-09T01:20:41.771Z,97800.00
2024-05-09T01:23:11.642Z,97791.53
2024-05-09T01:25:38.772Z,97799.28
2024-05-09T01:28:06.450Z,97785.50
2024-05-09T01:30:35.886Z,97793.22
2024-05-09T01:33:06.791Z,97799.94
2024-05-09T01:35:35.297Z,97787.19
2024-05-09T01:38:02.243Z,97785.19
2024-05-09T01:40:36.681Z,97788.47
2024-05-09T01:43:06.537Z,97780.78
2024-05-09T01:45:33.298Z,97788.06
2024-05-09T01:48:00.247Z,97783.03
2024-05-09T01:52:56.821Z,97793.16
2024-05-09T01:55:23.703Z,97788.53
2024-05-09T01:57:50.272Z,97788.97
2024-05-09T02:00:22.425Z,97789.38
2024-05-09T02:02:57.942Z,97789.84
2024-05-09T02:05:24.813Z,97791.06
2024-05-09T02:07:51.536Z,97782.16
2024-05-09T02:10:23.518Z,97780.53
2024-05-09T02:12:56.857Z,97783.34
2024-05-09T02:15:23.665Z,97789.50
2024-05-09T02:17:50.843Z,97789.88
2024-05-09T02:20:26.763Z,97797.59
2024-05-09T02:22:57.654Z,97793.94
2024-05-09T02:25:24.771Z,97791.50
2024-05-09T02:27:51.490Z,97788.06
2024-05-09T02:30:26.225Z,97794.34
2024-05-09T02:33:02.697Z,97788.69
2024-05-09T02:35:29.371Z,97783.41
2024-05-09T02:37:56.004Z,97782.97
2024-05-09T02:40:32.974Z,97793.88
2024-05-09T02:43:03.762Z,97792.91
2024-05-09T02:45:30.345Z,97790.28
2024-05-09T02:47:57.395Z,97791.09
2024-05-09T02:50:33.094Z,97791.31
2024-05-09T02:53:04.456Z,97793.50
2024-05-09T02:55:31.226Z,97789.66
2024-05-09T02:57:57.939Z,97796.31
2024-05-09T03:00:34.172Z,97794.28
2024-05-09T03:03:06.455Z,97794.28
2024-05-09T03:05:33.656Z,97790.03
2024-05-09T03:08:00.409Z,97793.88
2024-05-09T03:10:29.154Z,97795.47
2024-05-09T03:13:06.173Z,97793.88
2024-05-09T03:15:33.217Z,97790.03
2024-05-09T03:18:00.880Z,97798.78
2024-05-09T03:20:33.528Z,97789.09
2024-05-09T03:23:02.265Z,97808.13
2024-05-09T03:25:29.078Z,97804.28
2024-05-09T03:27:55.813Z,97802.88
2024-05-09T03:30:35.815Z,97800.44
2024-05-09T03:33:15.653Z,97799.22
2024-05-09T03:35:46.405Z,97803.66
2024-05-09T03:38:13.476Z,97794.94
2024-05-09T03:40:47.516Z,97794.94
2024-05-09T03:43:15.579Z,97795.97
2024-05-09T03:45:43.170Z,97796.56
2024-05-09T03:48:10.392Z,97800.41
2024-05-09T03:50:37.693Z,97797.59
2024-05-09T03:53:04.993Z,97794.53
2024-05-09T03:55:31.946Z,97801.22
2024-05-09T03:57:58.764Z,97799.59
2024-05-09T04:00:31.750Z,97802.66
2024-05-09T04:03:06.396Z,97795.78
2024-05-09T04:05:35.190Z,97798.00
2024-05-09T04:08:02.251Z,97800.03
2024-05-09T04:10:33.537Z,97804.47
2024-05-09T04:13:02.278Z,97806.50
2024-05-09T04:15:29.259Z,97812.19
2024-05-09T04:17:56.305Z,97809.31
2024-05-09T04:20:33.650Z,97811.72
2024-05-09T04:23:06.703Z,97803.56
2024-05-09T04:25:33.703Z,97803.72
2024-05-09T04:28:00.345Z,97807.94
2024-05-09T04:30:36.057Z,97806.75
2024-05-09T04:33:07.756Z,97802.81
2024-05-09T04:35:36.088Z,97804.94
2024-05-09T04:38:03.428Z,97805.28
2024-05-09T04:40:34.244Z,97804.59
2024-05-09T04:43:03.930Z,97809.16
2024-05-09T04:45:30.746Z,97812.00
2024-05-09T04:47:57.847Z,97804.09
2024-05-09T04:50:33.213Z,97811.63
2024-05-09T04:53:04.095Z,97812.53
2024-05-09T04:55:31.274Z,97811.53
2024-05-09T04:57:57.876Z,97812.28
2024-05-09T05:00:32.533Z,97807.63
2024-05-09T05:03:07.399Z,97809.53
2024-05-09T05:05:37.902Z,97808.69
2024-05-09T05:08:05.485Z,97803.59
2024-05-09T05:10:36.115Z,97801.97
2024-05-09T05:13:18.091Z,97814.84
2024-05-09T05:15:46.551Z,97812.28
2024-05-09T05:18:13.337Z,97809.16
2024-05-09T05:20:40.418Z,97802.19
2024-05-09T05:23:11.351Z,97808.81
2024-05-09T05:25:38.146Z,97805.16
2024-05-09T05:28:05.450Z,97806.19
2024-05-09T05:30:34.732Z,97807.56
2024-05-09T05:33:01.944Z,97811.81
2024-05-09T05:35:28.834Z,97814.56
2024-05-09T05:37:55.693Z,97820.34
2024-05-09T05:40:28.712Z,97814.09
2024-05-09T05:43:03.747Z,97822.63
2024-05-09T05:45:30.393Z,97821.25
2024-05-09T05:47:57.366Z,97814.81
2024-05-09T05:50:32.250Z,97823.09
2024-05-09T05:53:03.513Z,97821.47
2024-05-09T05:55:30.319Z,97825.25
2024-05-09T05:57:57.023Z,97831.31
2024-05-09T06:00:29.972Z,97836.31
2024-05-09T06:03:04.950Z,97843.19
2024-05-09T06:05:32.176Z,97835.94
2024-05-09T06:07:59.029Z,97841.50
2024-05-09T06:10:30.394Z,97835.34
2024-05-09T06:13:04.497Z,97832.66
2024-05-09T06:15:31.107Z,97834.84
2024-05-09T06:17:57.927Z,97840.19
2024-05-09T06:20:34.008Z,97835.59
2024-05-09T06:23:03.651Z,97833.53
2024-05-09T06:25:30.294Z,97833.53
2024-05-09T06:27:57.089Z,97840.19
2024-05-09T06:30:30.432Z,97845.81
2024-05-09T06:33:08.235Z,97841.97
2024-05-09T06:35:35.443Z,97843.63
2024-05-09T06:38:02.473Z,97844.16
2024-05-09T06:40:37.051Z,97837.94
2024-05-09T06:43:18.723Z,97839.69
2024-05-09T06:45:52.469Z,97847.16
2024-05-09T06:48:20.073Z,97844.44
2024-05-09T06:50:47.217Z,97849.03
2024-05-09T06:53:15.154Z,97845.41
2024-05-09T06:55:42.075Z,97844.84
2024-05-09T06:58:12.019Z,97854.06
2024-05-09T07:00:40.986Z,97849.16
2024-05-09T07:03:11.209Z,97856.75
2024-05-09T07:05:39.025Z,97849.00
2024-05-09T07:08:06.413Z,97851.38
2024-05-09T07:10:35.584Z,97847.59
2024-05-09T07:13:03.421Z,97846.25
2024-05-09T07:15:30.090Z,97846.56
2024-05-09T07:17:56.920Z,97838.38
2024-05-09T07:20:32.171Z,97841.84
2024-05-09T07:23:05.316Z,97845.28
2024-05-09T07:25:32.117Z,97842.38
2024-05-09T07:27:59.019Z,97844.63
2024-05-09T07:30:32.880Z,97843.94
2024-05-09T07:33:02.325Z,97837.41
2024-05-09T07:35:30.058Z,97834.59
2024-05-09T07:37:57.056Z,97828.44
2024-05-09T07:40:32.728Z,97833.59
2024-05-09T07:43:04.204Z,97832.44
2024-05-09T07:45:47.808Z,97824.00
2024-05-09T07:52:24.324Z,97824.97
2024-05-09T07:53:44.668Z,97822.88
2024-05-09T07:56:15.551Z,97824.00
2024-05-09T07:58:45.662Z,97816.50
2024-05-09T08:01:12.456Z,97812.28
2024-05-09T08:03:39.498Z,97817.78
2024-05-09T08:06:06.321Z,97814.50
2024-05-09T08:08:32.825Z,97811.50
2024-05-09T08:10:59.574Z,97819.06
2024-05-09T08:13:26.543Z,97811.16
2024-05-09T08:15:53.299Z,97809.34
2024-05-09T08:18:20.146Z,97805.44
2024-05-09T08:20:48.813Z,97806.13
2024-05-09T08:23:15.878Z,97802.66
2024-05-09T08:25:42.577Z,97794.78
2024-05-09T08:28:10.988Z,97806.47
2024-05-09T08:30:38.493Z,97801.97
2024-05-09T08:33:06.626Z,97795.94
2024-05-09T08:35:34.557Z,97780.41
2024-05-09T08:38:03.383Z,97788.34
2024-05-09T08:40:35.598Z,97791.03
2024-05-09T08:43:09.230Z,97786.25
2024-05-09T08:45:39.044Z,97793.59
2024-05-09T08:48:08.462Z,97796.25
2024-05-09T08:50:41.783Z,97791.75
2024-05-09T08:53:09.125Z,97791.28
2024-05-09T08:55:40.362Z,97781.63
2024-05-09T08:58:12.847Z,97783.97
2024-05-09T09:00:41.990Z,97788.38
2024-05-09T09:03:11.624Z,97786.44
2024-05-09T09:05:40.591Z,97787.66
2024-05-09T09:08:08.701Z,97798.56
2024-05-09T09:10:36.574Z,97795.63
2024-05-09T09:13:05.083Z,97787.72
2024-05-09T09:15:33.072Z,97793.50
2024-05-09T09:18:01.005Z,97789.84
2024-05-09T09:20:35.651Z,97788.50
2024-05-09T09:23:04.728Z,97789.88
2024-05-09T09:25:32.029Z,97781.94
2024-05-09T09:27:59.136Z,97781.38
2024-05-09T09:30:36.367Z,97778.28
2024-05-09T09:33:06.072Z,97782.22
2024-05-09T09:35:33.166Z,97782.72
2024-05-09T09:38:03.484Z,97776.03
2024-05-09T09:40:37.103Z,97778.22
2024-05-09T09:43:13.969Z,97778.28
2024-05-09T09:45:43.331Z,97774.34
2024-05-09T09:48:12.060Z,97771.41
2024-05-09T09:50:40.248Z,97778.59
2024-05-09T09:53:07.664Z,97773.25
2024-05-09T09:55:34.842Z,97778.03
2024-05-09T09:58:01.595Z,97776.16
2024-05-09T10:00:33.007Z,97784.97
2024-05-09T10:03:01.141Z,97770.84
2024-05-09T10:05:28.859Z,97773.56
2024-05-09T10:07:57.389Z,97769.16
2024-05-09T10:10:31.598Z,97771.19
2024-05-09T10:13:07.392Z,97764.75
2024-05-09T10:15:51.181Z,97766.59
2024-05-09T10:18:22.821Z,97773.66
2024-05-09T10:20:51.778Z,97760.28
2024-05-09T10:23:26.189Z,97756.63
2024-05-09T10:26:00.179Z,97758.22
2024-05-09T10:28:31.741Z,97765.25
2024-05-09T10:31:09.637Z,97751.09
2024-05-09T10:33:45.557Z,97764.75
2024-05-09T10:36:14.210Z,97749.53
2024-05-09T10:38:42.973Z,97759.59
2024-05-09T10:41:10.878Z,97753.34
2024-05-09T10:43:41.641Z,97754.22
2024-05-09T10:46:09.760Z,97760.09
2024-05-09T10:48:37.635Z,97750.44
2024-05-09T10:51:05.072Z,97745.00
2024-05-09T10:53:31.975Z,97747.38
2024-05-09T10:55:59.683Z,97737.16
2024-05-09T10:58:27.130Z,97736.94
2024-05-09T11:00:57.715Z,97737.53
2024-05-09T11:03:25.284Z,97733.59
2024-05-09T11:05:53.132Z,97724.31
2024-05-09T11:08:24.249Z,97729.44
2024-05-09T11:10:52.858Z,97723.19
2024-05-09T11:13:29.420Z,97728.66
2024-05-09T11:15:56.176Z,97719.75
2024-05-09T11:18:25.941Z,97718.59
2024-05-09T11:20:55.116Z,97724.06
2024-05-09T11:23:22.964Z,97716.13
2024-05-09T11:25:50.402Z,97712.78
2024-05-09T11:28:21.316Z,97721.56
2024-05-09T11:30:49.360Z,97715.78
2024-05-09T11:33:18.414Z,97711.97
2024-05-09T11:35:46.615Z,97705.28
2024-05-09T11:38:13.768Z,97707.97
2024-05-09T11:40:40.591Z,97706.19
2024-05-09T11:43:07.364Z,97708.91
2024-05-09T11:45:34.215Z,97706.13
2024-05-09T11:48:01.248Z,97698.91
2024-05-09T11:50:32.990Z,97711.41
2024-05-09T11:53:02.364Z,97701.22
2024-05-09T11:55:29.222Z,97707.56
2024-05-09T11:57:56.462Z,97700.47
2024-05-09T12:00:33.721Z,97700.81
2024-05-09T12:03:05.610Z,97693.22
2024-05-09T12:05:34.028Z,97695.03
2024-05-09T12:08:01.474Z,97686.22
2024-05-09T12:10:33.347Z,97691.63
2024-05-09T12:13:04.158Z,97691.50
2024-05-09T12:15:32.501Z,97687.38
2024-05-09T12:18:01.696Z,97684.13
2024-05-09T12:20:36.626Z,97683.78
2024-05-09T12:23:06.401Z,97672.44
2024-05-09T12:25:33.210Z,97673.78
2024-05-09T12:28:00.324Z,97675.91
2024-05-09T12:30:35.582Z,97670.50
2024-05-09T12:33:06.547Z,97670.28
2024-05-09T12:35:33.523Z,97678.53
2024-05-09T12:38:00.324Z,97667.09
2024-05-09T12:40:35.400Z,97670.03
2024-05-09T12:43:06.523Z,97679.63
2024-05-09T12:45:33.616Z,97666.53
2024-05-09T12:48:00.415Z,97665.19
2024-05-09T12:50:32.516Z,97672.63
2024-05-09T12:53:01.588Z,97662.16
2024-05-09T12:55:31.922Z,97663.06
2024-05-09T12:58:04.755Z,97662.09
2024-05-09T13:00:34.144Z,97666.56
2024-05-09T13:03:01.642Z,97672.03
2024-05-09T13:05:29.082Z,97662.25
2024-05-09T13:07:57.052Z,97660.81
2024-05-09T13:10:31.154Z,97658.41
2024-05-09T13:13:00.494Z,97658.50
2024-05-09T13:15:27.785Z,97660.72
2024-05-09T13:17:57.003Z,97656.22
2024-05-09T13:20:31.789Z,97647.28
2024-05-09T13:23:02.653Z,97649.00
2024-05-09T13:25:29.317Z,97645.66
2024-05-09T13:27:56.979Z,97645.94
2024-05-09T13:30:29.918Z,97650.28
2024-05-09T13:33:06.559Z,97648.16
2024-05-09T13:35:35.206Z,97631.78
2024-05-09T13:38:02.658Z,97636.41
2024-05-09T13:40:33.833Z,97628.66
2024-05-09T13:43:03.129Z,97619.22
2024-05-09T13:45:29.882Z,97630.88
2024-05-09T13:47:56.999Z,97623.94
2024-05-09T13:50:31.584Z,97616.06
2024-05-09T13:53:02.138Z,97618.13
2024-05-09T13:55:29.008Z,97621.97
2024-05-09T13:57:56.094Z,97611.38
2024-05-09T14:00:37.324Z,97613.72
2024-05-09T14:03:10.066Z,97603.19
2024-05-09T14:05:36.955Z,97603.75
2024-05-09T14:08:04.206Z,97604.56
2024-05-09T14:10:32.183Z,97601.78
2024-05-09T14:13:00.379Z,97604.38
2024-05-09T14:15:29.810Z,97608.66
2024-05-09T14:17:56.564Z,97600.91
2024-05-09T14:20:30.423Z,97592.25
2024-05-09T14:22:59.978Z,97596.91
2024-05-09T14:25:35.094Z,97601.31
2024-05-09T14:28:04.044Z,97597.75
2024-05-09T14:30:36.654Z,97592.91
2024-05-09T14:33:06.339Z,97604.97
2024-05-09T14:35:33.952Z,97594.81
2024-05-09T14:38:00.683Z,97582.56
2024-05-09T14:40:37.249Z,97582.91
2024-05-09T14:43:08.712Z,97584.38
2024-05-09T14:45:35.641Z,97573.88
2024-05-09T14:48:03.326Z,97575.38
2024-05-09T14:50:36.032Z,97575.13
2024-05-09T14:53:06.965Z,97577.38
2024-05-09T14:55:36.582Z,97578.38
2024-05-09T14:58:08.655Z,97569.25
2024-05-09T15:00:42.468Z,97572.63
2024-05-09T15:03:12.620Z,97565.28
2024-05-09T15:05:40.539Z,97566.66
2024-05-09T15:08:07.972Z,97570.63
2024-05-09T15:10:36.639Z,97561.84
2024-05-09T15:13:04.869Z,97568.16
2024-05-09T15:15:31.898Z,97560.03
2024-05-09T15:17:58.979Z,97553.66
2024-05-09T15:20:33.113Z,97551.50
2024-05-09T15:23:02.800Z,97552.19
2024-05-09T15:25:29.671Z,97547.31
2024-05-09T15:27:56.850Z,97549.13
2024-05-09T15:30:30.760Z,97551.69
2024-05-09T15:33:00.982Z,97550.63
2024-05-09T15:35:28.119Z,97547.53
2024-05-09T15:37:55.469Z,97546.31
2024-05-09T15:40:31.240Z,97544.81
2024-05-09T15:43:05.748Z,97540.59
2024-05-09T15:45:32.925Z,97538.78
2024-05-09T15:48:00.141Z,97530.69
2024-05-09T15:50:35.796Z,97538.50
2024-05-09T15:53:06.724Z,97535.13
2024-05-09T15:55:34.436Z,97532.22
2024-05-09T15:58:02.674Z,97535.19
2024-05-09T16:00:37.390Z,97522.13
2024-05-09T16:03:08.155Z,97520.78
2024-05-09T16:05:35.385Z,97524.72
2024-05-09T16:08:02.628Z,97524.28
2024-05-09T16:10:32.950Z,97520.78
2024-05-09T16:13:02.372Z,97525.22
2024-05-09T16:15:31.095Z,97523.66
2024-05-09T16:17:58.111Z,97522.53
2024-05-09T16:20:34.546Z,97517.91
2024-05-09T16:23:06.551Z,97508.25
2024-05-09T16:25:33.350Z,97515.22
2024-05-09T16:28:00.291Z,97514.50
2024-05-09T16:30:31.945Z,97525.00
2024-05-09T16:33:03.270Z,97521.66
2024-05-09T16:35:30.311Z,97517.22
2024-05-09T16:37:57.134Z,97513.72
2024-05-09T16:40:30.494Z,97519.88
2024-05-09T16:43:04.811Z,97512.47
2024-05-09T16:45:32.026Z,97512.38
2024-05-09T16:47:59.365Z,97509.19
2024-05-09T16:50:31.538Z,97507.13
2024-05-09T16:53:00.460Z,97508.53
2024-05-09T16:55:27.344Z,97512.00
2024-05-09T16:57:54.995Z,97508.28
2024-05-09T17:00:31.463Z,97506.75
2024-05-09T17:03:06.599Z,97505.16
2024-05-09T17:05:34.066Z,97509.63
2024-05-09T17:08:01.265Z,97512.34
2024-05-09T17:10:32.872Z,97505.44
2024-05-09T17:13:02.110Z,97502.84
2024-05-09T17:15:28.937Z,97504.91
2024-05-09T17:17:55.975Z,97493.00
2024-05-09T17:20:29.698Z,97501.03
2024-05-09T17:23:02.180Z,97500.16
2024-05-09T17:25:29.088Z,97497.59
2024-05-09T17:27:56.066Z,97496.63
2024-05-09T17:30:29.140Z,97505.34
2024-05-09T17:33:02.681Z,97497.75
2024-05-09T17:35:29.588Z,97499.63
2024-05-09T17:37:56.794Z,97494.63
2024-05-09T17:42:53.157Z,97501.66
2024-05-09T17:45:20.651Z,97493.09
2024-05-09T17:47:47.718Z,97499.56
2024-05-09T17:50:20.991Z,97501.25
2024-05-09T17:52:53.824Z,97502.28
2024-05-09T17:55:21.308Z,97505.00
2024-05-09T17:57:48.191Z,97498.75
2024-05-09T18:00:24.076Z,97491.53
2024-05-09T18:02:56.277Z,97492.13
2024-05-09T18:05:23.433Z,97495.88
2024-05-09T18:07:50.173Z,97493.56
2024-05-09T18:10:25.196Z,97489.31
2024-05-09T18:12:56.430Z,97498.94
2024-05-09T18:15:23.203Z,97496.31
2024-05-09T18:17:50.113Z,97502.75
2024-05-09T18:20:24.203Z,97498.53
2024-05-09T18:22:59.551Z,97498.03
2024-05-09T18:25:26.162Z,97500.22
2024-05-09T18:27:52.987Z,97499.75
2024-05-09T18:30:27.414Z,97492.84
2024-05-09T18:32:58.695Z,97494.50
2024-05-09T18:35:25.327Z,97500.94
2024-05-09T18:37:53.545Z,97495.34
2024-05-09T18:40:27.362Z,97500.47
2024-05-09T18:42:58.021Z,97501.00
2024-05-09T18:45:24.709Z,97505.75
2024-05-09T18:47:51.704Z,97504.72
2024-05-09T18:50:28.415Z,97506.56
2024-05-09T18:53:01.475Z,97500.69
2024-05-09T18:55:28.191Z,97501.75
2024-05-09T18:57:55.155Z,97516.66
2024-05-09T19:00:31.558Z,97511.06
2024-05-09T19:03:05.880Z,97521.13
2024-05-09T19:05:35.037Z,97515.81
2024-05-09T19:08:02.756Z,97519.00
2024-05-09T19:10:34.292Z,97515.53
2024-05-09T19:13:05.751Z,97516.25
2024-05-09T19:15:36.113Z,97516.75
2024-05-09T19:18:04.434Z,97516.19
2024-05-09T19:20:34.543Z,97521.47
2024-05-09T19:23:02.706Z,97520.09
2024-05-09T19:25:32.046Z,97530.72
2024-05-09T19:27:59.916Z,97526.75
2024-05-09T19:30:36.353Z,97527.78
2024-05-09T19:33:07.395Z,97538.44
2024-05-09T19:35:34.307Z,97527.25
2024-05-09T19:38:01.198Z,97533.91
2024-05-09T19:40:32.053Z,97530.47
2024-05-09T19:43:05.202Z,97535.78
2024-05-09T19:45:34.019Z,97536.81
2024-05-09T19:48:01.963Z,97532.81
2024-05-09T19:50:37.046Z,97530.97
2024-05-09T19:53:09.427Z,97531.25
2024-05-09T19:55:36.205Z,97533.59
2024-05-09T19:58:05.041Z,97538.38
2024-05-09T20:00:39.680Z,97533.56
2024-05-09T20:03:09.623Z,97543.34
2024-05-09T20:05:37.402Z,97546.19
2024-05-09T20:08:04.965Z,97551.44
2024-05-09T20:10:33.778Z,97551.38
2024-05-09T20:13:02.751Z,97551.78
2024-05-09T20:15:29.932Z,97549.47
2024-05-09T20:17:59.710Z,97545.63
2024-05-09T20:20:35.000Z,97547.06
2024-05-09T20:23:08.682Z,97549.88
2024-05-09T20:25:35.424Z,97549.75
2024-05-09T20:28:02.314Z,97547.25
2024-05-09T20:30:32.778Z,97545.81
2024-05-09T20:33:07.031Z,97532.19
2024-05-09T20:35:35.327Z,97535.28
2024-05-09T20:38:03.331Z,97542.34
2024-05-09T20:40:34.793Z,97543.06
2024-05-09T20:43:05.092Z,97541.72
2024-05-09T20:45:31.992Z,97547.69
2024-05-09T20:47:58.802Z,97548.66
2024-05-09T20:50:35.743Z,97549.16
2024-05-09T20:53:08.625Z,97550.16
2024-05-09T20:55:35.341Z,97550.63
2024-05-09T20:58:01.995Z,97550.00
2024-05-09T21:00:35.512Z,97553.63
2024-05-09T21:03:07.535Z,97554.84
2024-05-09T21:05:35.239Z,97552.91
2024-05-09T21:08:02.634Z,97549.22
2024-05-09T21:10:32.916Z,97550.19
2024-05-09T21:13:01.384Z,97548.97
2024-05-09T21:15:28.304Z,97551.88
2024-05-09T21:17:55.030Z,97548.91
2024-05-09T21:20:28.580Z,97536.06
2024-05-09T21:22:58.322Z,97540.22
2024-05-09T21:25:25.100Z,97543.91
2024-05-09T21:27:52.391Z,97538.63
2024-05-09T21:30:31.458Z,97534.38
2024-05-09T21:33:08.612Z,97534.13
2024-05-09T21:35:36.041Z,97544.50
2024-05-09T21:38:03.397Z,97541.84
2024-05-09T21:40:34.430Z,97546.59
2024-05-09T21:43:03.741Z,97538.25
2024-05-09T21:45:30.559Z,97537.91
2024-05-09T21:47:57.221Z,97535.66
2024-05-09T21:50:31.800Z,97529.69
2024-05-09T21:53:05.533Z,97534.19
2024-05-09T21:55:32.142Z,97525.34
2024-05-09T21:57:58.749Z,97532.53
2024-05-09T22:00:34.483Z,97530.25
2024-05-09T22:03:04.838Z,97536.50
2024-05-09T22:05:31.717Z,97532.25
2024-05-09T22:07:58.463Z,97530.88
2024-05-09T22:10:30.896Z,97525.50
2024-05-09T22:13:01.380Z,97522.19
2024-05-09T22:15:28.307Z,97531.94
2024-05-09T22:17:56.189Z,97528.28
2024-05-09T22:20:32.768Z,97517.56
2024-05-09T22:23:03.465Z,97521.03
2024-05-09T22:25:31.199Z,97521.41
2024-05-09T22:27:58.890Z,97522.34
2024-05-09T22:30:34.127Z,97522.78
2024-05-09T22:33:05.679Z,97523.50
2024-05-09T22:35:32.776Z,97531.19
2024-05-09T22:37:59.814Z,97525.22
2024-05-09T22:40:38.138Z,97525.31
2024-05-09T22:43:13.246Z,97528.09
2024-05-09T22:45:40.161Z,97521.44
2024-05-09T22:48:08.339Z,97519.00
2024-05-09T22:50:35.227Z,97516.63
2024-05-09T22:53:01.999Z,97527.63
2024-05-09T22:55:28.822Z,97539.09
2024-05-09T22:57:55.815Z,97539.56
2024-05-09T23:00:30.880Z,97529.91
2024-05-09T23:03:00.244Z,97537.47
2024-05-09T23:05:27.397Z,97528.31
2024-05-09T23:07:54.141Z,97539.44
2024-05-09T23:10:27.940Z,97526.25
2024-05-09T23:13:01.357Z,97529.22
2024-05-09T23:15:28.302Z,97525.19
2024-05-09T23:17:55.374Z,97535.88
2024-05-09T23:20:32.926Z,97528.59
2024-05-09T23:23:04.713Z,97536.41
2024-05-09T23:25:31.328Z,97538.59
2024-05-09T23:27:58.088Z,97532.34
2024-05-09T23:30:34.189Z,97527.75
2024-05-09T23:33:05.969Z,97526.34
2024-05-09T23:35:32.788Z,97532.09
2024-05-09T23:37:59.644Z,97533.53
2024-05-09T23:40:37.034Z,97525.72
2024-05-09T23:43:07.053Z,97534.59
2024-05-09T23:45:34.239Z,97520.09
2024-05-09T23:48:01.406Z,97530.03
2024-05-09T23:50:34.559Z,97537.97
2024-05-09T23:53:05.008Z,97529.03
2024-05-09T23:55:32.515Z,97526.03
2024-05-09T23:57:59.752Z,97526.25
